Philadelphia, PA

9:10 AM EDT on April 21, 2015 (GMT -0400)
Somerton | | Change Station
CLOSE
Current Station
Personal Weather Station
Location: Philadelphia, PA
Elevation: 167 ft
Nearby Weather Stations

Elev 167 ft 40.13 °N, 75.00 °W | Updated 12 minutes ago

Mostly Cloudy
Mostly Cloudy
55.9 °F
Feels Like 55.9 °F
N
6.3
Wind Variable Wind from NE

Today
High -- | Low -- °F
--% Chance of Precip.
Yesterday
High -- | Low -- °F
Precip. -- in
6:13 AM 7:44 PM
Waxing Crescent, 10% visible
Pressure 29.70 in
Visibility 10.0 miles
Clouds Mostly Cloudy 7500 ft
Dew Point 52 °F
Humidity 85%
Rainfall 0.46 in
Snow Depth Not available.
UV 2 out of 12
Pollen 9.30 out of 12
Air Quality Not available.
Flu Activity Sporadic
METAR KPNE 211254Z 30009KT 10SM BKN075 14/07 A2970 RMK AO2 RAB05E31 SLP056 P0000 T01440067

More Conditions Fewer Conditions

Pressure 29.70 in
Visibility 10.0 miles
Clouds Mostly Cloudy 7500 ft
Dew Point 52 °F
Humidity 85%
Rainfall 0.46 in
Snow Depth Not available.
UV 2 out of 12
Pollen 9.30 out of 12
Air Quality Not available.
Flu Activity Sporadic
METAR KPNE 211254Z 30009KT 10SM BKN075 14/07 A2970 RMK AO2 RAB05E31 SLP056 P0000 T01440067

More Conditions Fewer Conditions

10-Day Weather Forecast

Almanac

Astronomy

Apr. 21, 2015 Rise Set
Actual Time
Civil Twilight
Nautical Twilight
Astronomical Twilight
Moon
Length of Visible Light
Length of Day
Tomorrow will be .
, % of the Moon is Illuminated

Today's Extremes

State Highs State Lows

Community

WunderPhotos

Upload Photos

1,815,370 photos uploaded!

WunderBlogs® & News

Nearby

Air Quality

  Air Quality AQ Index Pollutant
Not available.

Snow Depth

Station Depth Elevation

Earthquake Activity

City Distance Mag. Time & Date
Minimum magnitude displayed is 2.5.

Coastal Water Temperatures

Place Temperature

Stations

Nearby Weather Stations

Station Location Temp. Windchill Dew Point Humidity Wind Precip. Elev Updated Type